首页
METAR-TAF:

METAR-TAF

机场 :

Wattisham, 英格兰

纬度: 52-07N, 经度: 000-58E, 海拔: 87米

当前天气观测

该预报发布于16分钟前的15:50 UTC
风速8节,风向南转西南
温度 16°C
湿度 94%
气压 997 hPa
能见度10公里或以上
少量云层高于1800英尺
多云层高于3000英尺
多云层高于8000英尺

METAR: EGUW 231550Z 21008KT 9999 FEW018 BKN030 BKN080 16/15 Q0997 TEMPO 4000 SHRA BKN012 RMK BLU TEMPO GRN

时间: 17:06 (16:06 UTC)

预报

该预报发布于2小时和40分钟前的13:26 UTC
预报有效从23日的 15点(UTC)到 23日的 24点(UTC)
风速12节,风向西南
能见度10公里或以上
多云层高于2500英尺
成为
从 23日的 15点(UTC)到 23日的 17点(UTC)
多云层高于1500英尺
短暂存在
从 23日的 15点(UTC)到 23日的 22点(UTC)
能見度: 4000
多云层高于1000英尺
阵雨
成为
从 23日的 21点(UTC)到 23日的 24点(UTC)
风速15节,风向西南,有时为26节阵风
散云层高于4000英尺

TAF: EGUW 231326Z 2315/2324 23012KT 9999 BKN025 BECMG 2315/2317 BKN015 TEMPO 2315/2322 4000 SHRA BKN010 BECMG 2321/2324 23015G26KT SCT040

超过4000个机场的气象观测和天气预报(METAR&TAF报告)。

可查询的气象台以黄色和红色小点在地图上表示。

将鼠标移到小点上方,可查看气象台名称。

然后点击查看天气观测和预报。

如需切换地图:点击带黑十字的绿色按钮放大地图;点击带横线的绿色按钮缩小地图;或者点击绿色箭头查看邻近地区的地图。


METAR-TAF: